Time;durP1;ratioP1;P1;durP2;ratioP2;P2;SDS_P1;SDS_P2;PMS_P1;PMS_P2;Temp;Humidity;BMP_temperature;BMP_pressure;BME280_temperature;BME280_humidity;BME280_pressure;Samples;Min_cycle;Max_cycle;Signal;HPM_P1;HPM_P2
2021/03/24 00:02:05;;;;;;;;;;;;;;;-144.01;100.00;62166.59;5075097;28;19916;-56
2021/03/24 00:04:32;;;;;;;;;;;;;;;-144.01;100.00;62166.59;5074893;28;20341;-60
2021/03/24 00:06:59;;;;;;;;;;;;;;;-144.01;100.00;62166.59;5075309;28;19913;-59
2021/03/24 00:09:25;;;;;;;;;;;;;;;-144.01;100.00;62166.59;5075353;28;19913;-54
2021/03/24 00:11:52;;;;;;;;;;;;;;;-144.01;100.00;62166.59;5074769;28;19919;-57
2021/03/24 00:14:19;;;;;;;;;;;;;;;-144.01;100.00;62166.59;5075204;28;19916;-57
2021/03/24 00:16:47;;;;;;;;;;;;;;;-144.01;100.00;62166.59;5075213;28;19916;-56
2021/03/24 00:19:14;;;;;;;;;;;;;;;-144.01;100.00;62166.59;5075040;28;19919;-60
2021/03/24 00:21:41;;;;;;;;;;;;;;;-144.01;100.00;62166.59;5075195;28;19912;-58
2021/03/24 00:24:08;;;;;;;;;;;;;;;-144.01;100.00;62166.59;5075076;28;19913;-58
2021/03/24 00:26:35;;;;;;;;;;;;;;;-144.01;100.00;62166.59;5057467;28;19980;-57
2021/03/24 00:29:12;;;;;;;;;;;;;;;-144.01;100.00;62166.59;5074930;28;19946;-59
2021/03/24 00:31:39;;;;;;;;;;;;;;;-144.01;100.00;62166.59;5057724;28;20291;-53
2021/03/24 00:34:06;;;;;;;;;;;;;;;-144.01;100.00;62166.59;5074346;28;19912;-59
2021/03/24 00:36:38;;;;;;;;;;;;;;;-144.01;100.00;62166.59;5075311;28;19924;-58
2021/03/24 00:39:05;;;;;;;;;;;;;;;-144.01;100.00;62166.59;5075267;28;19919;-55
2021/03/24 00:41:32;;;;;;;;;;;;;;;-144.01;100.00;62166.59;5068263;28;19912;-55
2021/03/24 00:43:58;;;;;;;;;;;;;;;-144.01;100.00;62166.59;5075425;28;19916;-61
2021/03/24 00:46:25;;;;;;;;;;;;;;;-144.01;100.00;62166.59;5075509;28;19916;-60
2021/03/24 00:48:52;;;;;;;;;;;;;;;-144.01;100.00;62166.59;5078937;28;19923;-61
2021/03/24 00:51:19;;;;;;;;;;;;;;;-144.01;100.00;62166.59;5078220;28;19916;-58
2021/03/24 00:53:46;;;;;;;;;;;;;;;-144.01;100.00;62166.59;5078813;28;19942;-59
2021/03/24 00:56:13;;;;;;;;;;;;;;;-144.01;100.00;62166.59;5078582;28;19924;-52
2021/03/24 00:58:40;;;;;;;;;;;;;;;-144.01;100.00;62166.59;5078570;28;19920;-58
2021/03/24 01:01:07;;;;;;;;;;;;;;;-144.01;100.00;62166.59;5078273;28;19919;-66
2021/03/24 01:03:35;;;;;;;;;;;;;;;-144.01;100.00;62166.59;5078113;28;19916;-59
2021/03/24 01:06:02;;;;;;;;;;;;;;;-144.01;100.00;62166.59;5066556;28;19919;-57
2021/03/24 01:08:29;;;;;;;;;;;;;;;-144.01;100.00;62166.59;5057902;28;20255;-58
2021/03/24 01:11:02;;;;;;;;;;;;;;;-144.01;100.00;62166.59;5057456;28;19913;-57
2021/03/24 01:13:30;;;;;;;;;;;;;;;-144.01;100.00;62166.59;5074964;28;20350;-59
2021/03/24 01:15:56;;;;;;;;;;;;;;;-144.01;100.00;62166.59;5064406;28;19920;-59
2021/03/24 01:18:24;;;;;;;;;;;;;;;-144.01;100.00;62166.59;5057635;28;19913;-62
2021/03/24 01:20:52;;;;;;;;;;;;;;;-144.01;100.00;62166.59;5057403;28;19921;-55
2021/03/24 01:23:19;;;;;;;;;;;;;;;-144.01;100.00;62166.59;5073882;28;19924;-56
2021/03/24 01:25:47;;;;;;;;;;;;;;;-144.01;100.00;62166.59;5077611;28;19919;-57
2021/03/24 01:28:16;;;;;;;;;;;;;;;-144.01;100.00;62166.59;5077414;28;19916;-58
2021/03/24 01:30:43;;;;;;;;;;;;;;;-144.01;100.00;62166.59;5076825;28;19912;-67
2021/03/24 01:33:10;;;;;;;;;;;;;;;-144.01;100.00;62166.59;5068218;28;20307;-67
2021/03/24 01:35:39;;;;;;;;;;;;;;;-144.01;100.00;62166.59;5076592;28;19916;-67
2021/03/24 01:38:06;;;;;;;;;;;;;;;-144.01;100.00;62166.59;5078178;28;19943;-67
2021/03/24 01:40:35;;;;;;;;;;;;;;;-144.01;100.00;62166.59;5089998;28;19912;-54
2021/03/24 01:43:03;;;;;;;;;;;;;;;-144.01;100.00;62166.59;5097753;28;19916;-56
2021/03/24 01:45:30;;;;;;;;;;;;;;;-144.01;100.00;62166.59;5097560;28;19920;-61
2021/03/24 01:48:07;;;;;;;;;;;;;;;-144.01;100.00;62166.59;5097903;28;20226;-60
2021/03/24 01:50:35;;;;;;;;;;;;;;;-144.01;100.00;62166.59;5080102;28;19912;-54
2021/03/24 01:53:03;;;;;;;;;;;;;;;-144.01;100.00;62166.59;5097473;28;19915;-63
2021/03/24 01:55:29;;;;;;;;;;;;;;;-144.01;100.00;62166.59;5079790;28;19916;-58
2021/03/24 01:57:56;;;;;;;;;;;;;;;-144.01;100.00;62166.59;5097186;28;19919;-56
2021/03/24 02:00:26;;;;;;;;;;;;;;;-144.01;100.00;62166.59;5079797;28;19916;-55
2021/03/24 02:02:53;;;;;;;;;;;;;;;-144.01;100.00;62166.59;5097489;28;20290;-60
2021/03/24 02:05:20;;;;;;;;;;;;;;;-144.01;100.00;62166.59;5074844;28;19919;-57
2021/03/24 02:07:52;;;;;;;;;;;;;;;-144.01;100.00;62166.59;5057388;28;19943;-61
2021/03/24 02:10:40;;;;;;;;;;;;;;;-144.01;100.00;62166.59;5057143;28;19913;-60
2021/03/24 02:13:16;;;;;;;;;;;;;;;-144.01;100.00;62166.59;5062687;28;20350;-54
2021/03/24 02:15:45;;;;;;;;;;;;;;;-144.01;100.00;62166.59;5077187;28;20307;-57
2021/03/24 02:18:12;;;;;;;;;;;;;;;-144.01;100.00;62166.59;5059630;28;19912;-60
2021/03/24 02:20:50;;;;;;;;;;;;;;;-144.01;100.00;62166.59;5059472;28;19920;-57
2021/03/24 02:23:20;;;;;;;;;;;;;;;-144.01;100.00;62166.59;5076682;28;19916;-59
2021/03/24 02:25:58;;;;;;;;;;;;;;;-144.01;100.00;62166.59;5076904;28;20318;-56
2021/03/24 02:28:25;;;;;;;;;;;;;;;-144.01;100.00;62166.59;5059146;28;19924;-58
2021/03/24 02:30:52;;;;;;;;;;;;;;;-144.01;100.00;62166.59;5058846;28;19912;-61
2021/03/24 02:33:20;;;;;;;;;;;;;;;-144.01;100.00;62166.59;5058399;28;19916;-58
2021/03/24 02:35:51;;;;;;;;;;;;;;;-144.01;100.00;62166.59;5096548;28;19923;-61
2021/03/24 02:38:19;;;;;;;;;;;;;;;-144.01;100.00;62166.59;5079037;28;20306;-60
2021/03/24 02:40:46;;;;;;;;;;;;;;;-144.01;100.00;62166.59;5077722;28;19912;-58
2021/03/24 02:43:13;;;;;;;;;;;;;;;-144.01;100.00;62166.59;5078456;28;20242;-61
2021/03/24 02:45:42;;;;;;;;;;;;;;;-144.01;100.00;62166.59;5096590;28;19916;-59
2021/03/24 02:48:11;;;;;;;;;;;;;;;-144.01;100.00;62166.59;5078748;28;19919;-61
2021/03/24 02:50:38;;;;;;;;;;;;;;;-144.01;100.00;62166.59;5078483;28;19912;-62
2021/03/24 02:53:05;;;;;;;;;;;;;;;-144.01;100.00;62166.59;5061764;28;19912;-55
2021/03/24 02:55:33;;;;;;;;;;;;;;;-144.01;100.00;62166.59;5096394;28;19923;-61
2021/03/24 02:58:00;;;;;;;;;;;;;;;-144.01;100.00;62166.59;5078619;28;19912;-63
2021/03/24 03:00:27;;;;;;;;;;;;;;;-144.01;100.00;62166.59;5096106;28;19912;-59
2021/03/24 03:03:01;;;;;;;;;;;;;;;-144.01;100.00;62166.59;5096087;28;19916;-57
2021/03/24 03:05:28;;;;;;;;;;;;;;;-144.01;100.00;62166.59;5077878;28;19912;-61
2021/03/24 03:08:04;;;;;;;;;;;;;;;-144.01;100.00;62166.59;5075972;28;19919;-57
2021/03/24 03:10:34;;;;;;;;;;;;;;;-144.01;100.00;62166.59;5074013;28;19934;-59
2021/03/24 03:13:21;;;;;;;;;;;;;;;-144.01;100.00;62166.59;5074643;28;19923;-56
2021/03/24 03:16:00;;;;;;;;;;;;;;;-144.01;100.00;62166.59;5058259;28;19920;-60
2021/03/24 03:18:29;;;;;;;;;;;;;;;-144.01;100.00;62166.59;5058306;28;19920;-55
2021/03/24 03:20:57;;;;;;;;;;;;;;;-144.01;100.00;62166.59;5054606;28;19919;-58
2021/03/24 03:23:25;;;;;;;;;;;;;;;-144.01;100.00;62166.59;5068469;28;19916;-61
2021/03/24 03:25:58;;;;;;;;;;;;;;;-144.01;100.00;62166.59;5054723;28;19913;-59
2021/03/24 03:28:25;;;;;;;;;;;;;;;-144.01;100.00;62166.59;5054723;28;19917;-60
2021/03/24 03:30:52;;;;;;;;;;;;;;;-144.01;100.00;62166.59;5054630;28;19912;-60
2021/03/24 03:33:34;;;;;;;;;;;;;;;-144.01;100.00;62166.59;5067053;28;19917;-64
2021/03/24 03:36:01;;;;;;;;;;;;;;;-144.01;100.00;62166.59;5075750;28;19916;-59
2021/03/24 03:38:28;;;;;;;;;;;;;;;-144.01;100.00;62166.59;5074794;28;19919;-61
2021/03/24 03:40:56;;;;;;;;;;;;;;;-144.01;100.00;62166.59;5068109;28;20343;-62
2021/03/24 03:43:23;;;;;;;;;;;;;;;-144.01;100.00;62166.59;5060300;28;19939;-60
2021/03/24 03:45:50;;;;;;;;;;;;;;;-144.01;100.00;62166.59;5054533;28;19924;-60
2021/03/24 03:48:18;;;;;;;;;;;;;;;-144.01;100.00;62166.59;5054633;28;19920;-59
2021/03/24 03:50:46;;;;;;;;;;;;;;;-144.01;100.00;62166.59;5054464;28;19920;-61
2021/03/24 03:53:16;;;;;;;;;;;;;;;-144.01;100.00;62166.59;5065675;28;19919;-61
2021/03/24 03:55:44;;;;;;;;;;;;;;;-144.01;100.00;62166.59;5072674;28;19924;-59
2021/03/24 03:58:14;;;;;;;;;;;;;;;-144.01;100.00;62166.59;5055490;28;19951;-51
2021/03/24 04:00:43;;;;;;;;;;;;;;;-144.01;100.00;62166.59;5054327;28;19931;-55
2021/03/24 04:03:11;;;;;;;;;;;;;;;-144.01;100.00;62166.59;5064778;28;19916;-60
2021/03/24 04:05:40;;;;;;;;;;;;;;;-144.01;100.00;62166.59;5057560;28;19912;-53
2021/03/24 04:08:08;;;;;;;;;;;;;;;-144.01;100.00;62166.59;5073957;28;19919;-58
2021/03/24 04:10:36;;;;;;;;;;;;;;;-144.01;100.00;62166.59;5075303;28;19916;-55
2021/03/24 04:13:04;;;;;;;;;;;;;;;-144.01;100.00;62166.59;5073885;28;19987;-57
2021/03/24 04:15:31;;;;;;;;;;;;;;;-144.01;100.00;62166.59;5075260;28;19931;-59
2021/03/24 04:18:05;;;;;;;;;;;;;;;-144.01;100.00;62166.59;5057937;28;19924;-68
2021/03/24 04:20:32;;;;;;;;;;;;;;;-144.01;100.00;62166.59;5075481;28;20227;-56
2021/03/24 04:23:00;;;;;;;;;;;;;;;-144.01;100.00;62166.59;5061317;28;19912;-66
2021/03/24 04:25:53;;;;;;;;;;;;;;;-144.01;100.00;62166.59;5061475;28;19928;-54
2021/03/24 04:28:21;;;;;;;;;;;;;;;-144.01;100.00;62166.59;5075878;28;19917;-56
2021/03/24 04:30:53;;;;;;;;;;;;;;;-144.01;100.00;62166.59;5061109;28;20298;-56
2021/03/24 04:33:20;;;;;;;;;;;;;;;-144.01;100.00;62166.59;5060690;28;20329;-58
2021/03/24 04:35:47;;;;;;;;;;;;;;;-144.01;100.00;62166.59;5047543;28;19912;-53
2021/03/24 04:38:23;;;;;;;;;;;;;;;-144.01;100.00;62166.59;5058840;28;19916;-58
2021/03/24 04:40:51;;;;;;;;;;;;;;;-144.01;100.00;62166.59;5058626;28;20239;-60
2021/03/24 04:43:20;;;;;;;;;;;;;;;-144.01;100.00;62166.59;5057368;28;19916;-58
2021/03/24 04:45:54;;;;;;;;;;;;;;;-144.01;100.00;62166.59;5058711;28;19917;-52
2021/03/24 04:48:23;;;;;;;;;;;;;;;-144.01;100.00;62166.59;5041018;28;20235;-55
2021/03/24 04:51:00;;;;;;;;;;;;;;;-144.01;100.00;62166.59;5040893;28;19913;-58
2021/03/24 04:53:29;;;;;;;;;;;;;;;-144.01;100.00;62166.59;5040675;28;19912;-59
2021/03/24 04:55:56;;;;;;;;;;;;;;;-144.01;100.00;62166.59;5058404;28;19920;-53
2021/03/24 04:58:31;;;;;;;;;;;;;;;-144.01;100.00;62166.59;5040406;28;20351;-67
2021/03/24 05:01:03;;;;;;;;;;;;;;;-144.01;100.00;62166.59;5040623;28;20304;-68
2021/03/24 05:03:30;;;;;;;;;;;;;;;-144.01;100.00;62166.59;5042047;28;19919;-61
2021/03/24 05:05:58;;;;;;;;;;;;;;;-144.01;100.00;62166.59;5060442;28;19919;-67
2021/03/24 05:08:28;;;;;;;;;;;;;;;-144.01;100.00;62166.59;5078165;28;19913;-68
2021/03/24 05:10:56;;;;;;;;;;;;;;;-144.01;100.00;62166.59;5076813;28;19923;-67
2021/03/24 05:13:28;;;;;;;;;;;;;;;-144.01;100.00;62166.59;5077398;28;19912;-57
2021/03/24 05:15:56;;;;;;;;;;;;;;;-144.01;100.00;62166.59;5059740;28;19917;-65
2021/03/24 05:18:23;;;;;;;;;;;;;;;-144.01;100.00;62166.59;5059941;28;19916;-57
2021/03/24 05:20:53;;;;;;;;;;;;;;;-144.01;100.00;62166.59;5059965;28;19919;-53
2021/03/24 05:23:20;;;;;;;;;;;;;;;-144.01;100.00;62166.59;5053793;28;19916;-55
2021/03/24 05:25:52;;;;;;;;;;;;;;;-144.01;100.00;62166.59;5058320;28;19916;-49
2021/03/24 05:28:22;;;;;;;;;;;;;;;-144.01;100.00;62166.59;5055377;28;19917;-46
2021/03/24 05:30:50;;;;;;;;;;;;;;;-144.01;100.00;62166.59;5070279;28;19912;-51
2021/03/24 05:33:27;;;;;;;;;;;;;;;-144.01;100.00;62166.59;5055829;28;20329;-62
2021/03/24 05:35:57;;;;;;;;;;;;;;;-144.01;100.00;62166.59;5060084;28;19916;-47
2021/03/24 05:38:27;;;;;;;;;;;;;;;-144.01;100.00;62166.59;5077304;28;20258;-52
2021/03/24 05:41:09;;;;;;;;;;;;;;;-144.01;100.00;62166.59;5051376;28;20315;-57
2021/03/24 05:43:39;;;;;;;;;;;;;;;-144.01;100.00;62166.59;5061321;28;19919;-52
2021/03/24 05:46:06;;;;;;;;;;;;;;;-144.01;100.00;62166.59;5077038;28;19917;-49
2021/03/24 05:48:41;;;;;;;;;;;;;;;-144.01;100.00;62166.59;5067089;28;19916;-49
2021/03/24 05:51:12;;;;;;;;;;;;;;;-144.01;100.00;62166.59;5059842;28;19919;-47
2021/03/24 05:53:46;;;;;;;;;;;;;;;-144.01;100.00;62166.59;5056530;28;19919;-53
2021/03/24 05:56:15;;;;;;;;;;;;;;;-144.01;100.00;62166.59;5057619;28;19928;-70
2021/03/24 05:58:52;;;;;;;;;;;;;;;-144.01;100.00;62166.59;5067582;28;19916;-70
2021/03/24 06:01:26;;;;;;;;;;;;;;;-144.01;100.00;62166.59;5059992;28;19923;-56
2021/03/24 06:03:53;;;;;;;;;;;;;;;-144.01;100.00;62166.59;5061138;28;20319;-46
2021/03/24 06:06:22;;;;;;;;;;;;;;;-144.01;100.00;62166.59;5077410;28;19943;-51
2021/03/24 06:09:08;;;;;;;;;;;;;;;-144.01;100.00;62166.59;5077379;28;19917;-47
2021/03/24 06:11:35;;;;;;;;;;;;;;;-144.01;100.00;62166.59;5075693;28;19923;-46
2021/03/24 06:14:04;;;;;;;;;;;;;;;-144.01;100.00;62166.59;5076770;28;20262;-53
2021/03/24 06:16:50;;;;;;;;;;;;;;;-144.01;100.00;62166.59;5076807;28;19916;-51
2021/03/24 06:19:22;;;;;;;;;;;;;;;-144.01;100.00;62166.59;5076711;28;20238;-47
2021/03/24 06:21:52;;;;;;;;;;;;;;;-144.01;100.00;62166.59;5077097;28;19919;-49
2021/03/24 06:24:34;;;;;;;;;;;;;;;-144.01;100.00;62166.59;5076719;28;19919;-55
2021/03/24 06:27:20;;;;;;;;;;;;;;;-144.01;100.00;62166.59;5058850;28;19920;-47
2021/03/24 06:29:59;;;;;;;;;;;;;;;-144.01;100.00;62166.59;5059798;28;20247;-47
2021/03/24 06:32:45;;;;;;;;;;;;;;;-144.01;100.00;62166.59;5076879;28;20291;-59
2021/03/24 06:35:22;;;;;;;;;;;;;;;-144.01;100.00;62166.59;5076544;28;19913;-49
2021/03/24 06:37:52;;;;;;;;;;;;;;;-144.01;100.00;62166.59;5055668;28;19917;-54
2021/03/24 06:40:25;;;;;;;;;;;;;;;-144.01;100.00;62166.59;5070889;28;20215;-49
2021/03/24 06:43:10;;;;;;;;;;;;;;;-144.01;100.00;62166.59;5059242;28;19912;-59
2021/03/24 06:45:43;;;;;;;;;;;;;;;-144.01;100.00;62166.59;5059913;28;19920;-57
2021/03/24 06:48:33;;;;;;;;;;;;;;;-144.01;100.00;62166.59;5056700;28;19921;-62
2021/03/24 06:51:15;;;;;;;;;;;;;;;-144.01;100.00;62166.59;5069714;28;19923;-53
2021/03/24 06:53:42;;;;;;;;;;;;;;;-144.01;100.00;62166.59;5075472;28;20196;-49
2021/03/24 06:56:15;;;;;;;;;;;;;;;-144.01;100.00;62166.59;5076437;28;19917;-61
2021/03/24 06:58:42;;;;;;;;;;;;;;;-144.01;100.00;62166.59;5079216;28;20291;-63
2021/03/24 07:01:09;;;;;;;;;;;;;;;-144.01;100.00;62166.59;5096235;28;19926;-61
2021/03/24 07:03:54;;;;;;;;;;;;;;;-144.01;100.00;62166.59;5086161;28;19912;-67
2021/03/24 07:06:30;;;;;;;;;;;;;;;-144.01;100.00;62166.59;5075925;28;19919;-56
2021/03/24 07:09:21;;;;;;;;;;;;;;;-144.01;100.00;62166.59;5076341;28;19913;-67
2021/03/24 07:11:52;;;;;;;;;;;;;;;-144.01;100.00;62166.59;5027487;28;19916;-62
2021/03/24 07:14:19;;;;;;;;;;;;;;;-144.01;100.00;62166.59;5055302;28;20254;-57
2021/03/24 07:16:57;;;;;;;;;;;;;;;-144.01;100.00;62166.59;5056178;28;19917;-61
2021/03/24 07:19:24;;;;;;;;;;;;;;;-144.01;100.00;62166.59;5055266;28;19917;-57
2021/03/24 07:22:00;;;;;;;;;;;;;;;-144.01;100.00;62166.59;5059819;28;20239;-54
2021/03/24 07:24:27;;;;;;;;;;;;;;;-144.01;100.00;62166.59;5072399;28;19913;-44
2021/03/24 07:26:59;;;;;;;;;;;;;;;-144.01;100.00;62166.59;5055685;28;19916;-52
2021/03/24 07:29:29;;;;;;;;;;;;;;;-144.01;100.00;62166.59;5055954;28;19916;-47
2021/03/24 07:32:06;;;;;;;;;;;;;;;-144.01;100.00;62166.59;5089329;28;19912;-56
2021/03/24 07:34:39;;;;;;;;;;;;;;;-144.01;100.00;62166.59;5085336;28;19913;-68
2021/03/24 07:37:13;;;;;;;;;;;;;;;-144.01;100.00;62166.59;5075895;28;19924;-44
2021/03/24 07:39:58;;;;;;;;;;;;;;;-144.01;100.00;62166.59;5069580;28;19912;-62
2021/03/24 07:42:33;;;;;;;;;;;;;;;-144.01;100.00;62166.59;5073197;28;19912;-49
2021/03/24 07:45:09;;;;;;;;;;;;;;;-144.01;100.00;62166.59;5058175;28;20231;-57
2021/03/24 07:47:38;;;;;;;;;;;;;;;-144.01;100.00;62166.59;5073978;28;20223;-45
2021/03/24 07:50:26;;;;;;;;;;;;;;;-144.01;100.00;62166.59;5060857;28;19916;-51
2021/03/24 07:53:02;;;;;;;;;;;;;;;-144.01;100.00;62166.59;5055555;28;19913;-70
2021/03/24 07:55:38;;;;;;;;;;;;;;;-144.01;100.00;62166.59;5056157;28;19919;-70
2021/03/24 07:58:43;;;;;;;;;;;;;;;-144.01;100.00;62166.59;5058911;28;19928;-44
2021/03/24 08:01:13;;;;;;;;;;;;;;;-144.01;100.00;62166.59;5047718;28;19912;-44
2021/03/24 08:03:59;;;;;;;;;;;;;;;-144.01;100.00;62166.59;5079789;28;19916;-43
2021/03/24 08:06:26;;;;;;;;;;;;;;;-144.01;100.00;62166.59;5079655;28;19923;-44
2021/03/24 08:09:11;;;;;;;;;;;;;;;-144.01;100.00;62166.59;5079656;28;19913;-44
2021/03/24 08:11:47;;;;;;;;;;;;;;;-144.01;100.00;62166.59;5061728;28;19913;-47
2021/03/24 08:14:29;;;;;;;;;;;;;;;-144.01;100.00;62166.59;5079559;28;19923;-44
2021/03/24 08:16:58;;;;;;;;;;;;;;;-144.01;100.00;62166.59;5079494;28;20226;-48
2021/03/24 08:19:28;;;;;;;;;;;;;;;-144.01;100.00;62166.59;5061761;28;20250;-44
2021/03/24 08:22:04;;;;;;;;;;;;;;;-144.01;100.00;62166.59;5079160;28;19920;-44
2021/03/24 08:24:35;;;;;;;;;;;;;;;-144.01;100.00;62166.59;5079446;28;19913;-44
2021/03/24 08:27:12;;;;;;;;;;;;;;;-144.01;100.00;62166.59;5060728;28;19919;-43
2021/03/24 08:29:54;;;;;;;;;;;;;;;-144.01;100.00;62166.59;5060876;28;19916;-55
2021/03/24 08:32:35;;;;;;;;;;;;;;;-144.01;100.00;62166.59;5061281;28;20254;-48
2021/03/24 08:35:08;;;;;;;;;;;;;;;-144.01;100.00;62166.59;5060958;28;20378;-43
2021/03/24 08:37:53;;;;;;;;;;;;;;;-144.01;100.00;62166.59;5068974;28;19917;-58
2021/03/24 08:40:39;;;;;;;;;;;;;;;-144.01;100.00;62166.59;5058218;28;19920;-43
2021/03/24 08:43:08;;;;;;;;;;;;;;;-144.01;100.00;62166.59;5078524;28;19951;-43
2021/03/24 08:45:44;;;;;;;;;;;;;;;-144.01;100.00;62166.59;5078351;28;19942;-43
2021/03/24 08:48:16;;;;;;;;;;;;;;;-144.01;100.00;62166.59;5078600;28;19919;-43
2021/03/24 08:50:45;;;;;;;;;;;;;;;-144.01;100.00;62166.59;5060127;28;20239;-49
2021/03/24 08:53:21;;;;;;;;;;;;;;;-144.01;100.00;62166.59;5057164;28;19920;-69
2021/03/24 08:55:54;;;;;;;;;;;;;;;-144.01;100.00;62166.59;5058676;28;19917;-69
2021/03/24 08:58:32;;;;;;;;;;;;;;;-144.01;100.00;62166.59;5057521;28;19924;-69
2021/03/24 09:01:18;;;;;;;;;;;;;;;-144.01;100.00;62166.59;5058291;28;19916;-70
2021/03/24 09:03:58;;;;;;;;;;;;;;;-144.01;100.00;62166.59;5078393;28;19916;-70
2021/03/24 09:06:28;;;;;;;;;;;;;;;-144.01;100.00;62166.59;5059928;28;20341;-67
2021/03/24 09:09:00;;;;;;;;;;;;;;;-144.01;100.00;62166.59;5077249;28;19912;-71
2021/03/24 09:11:41;;;;;;;;;;;;;;;-144.01;100.00;62166.59;5057221;28;20235;-68
2021/03/24 09:14:08;;;;;;;;;;;;;;;-144.01;100.00;62166.59;5057122;28;19944;-69
2021/03/24 09:16:44;;;;;;;;;;;;;;;-144.01;100.00;62166.59;5057688;28;19913;-69
2021/03/24 09:19:44;;;;;;;;;;;;;;;-144.01;100.00;62166.59;5058123;28;19917;-69
2021/03/24 09:22:14;;;;;;;;;;;;;;;-144.01;100.00;62166.59;5060441;28;19912;-68
2021/03/24 09:25:10;;;;;;;;;;;;;;;-144.01;100.00;62166.59;5098587;28;20245;-69
2021/03/24 09:27:55;;;;;;;;;;;;;;;-144.01;100.00;62166.59;5003839;28;19918;-57
2021/03/24 09:30:28;;;;;;;;;;;;;;;-144.01;100.00;62166.59;5057955;28;20339;-69
2021/03/24 09:33:04;;;;;;;;;;;;;;;-144.01;100.00;62166.59;5077878;28;19912;-64
2021/03/24 09:35:43;;;;;;;;;;;;;;;-144.01;100.00;62166.59;5077794;28;20254;-61
2021/03/24 09:38:15;;;;;;;;;;;;;;;-144.01;100.00;62166.59;5076854;28;19917;-70
2021/03/24 09:40:43;;;;;;;;;;;;;;;-144.01;100.00;62166.59;5056212;28;19917;-69
2021/03/24 09:43:17;;;;;;;;;;;;;;;-144.01;100.00;62166.59;5057715;28;20255;-67
2021/03/24 09:45:44;;;;;;;;;;;;;;;-144.01;100.00;62166.59;5057809;28;19916;-67
2021/03/24 09:48:12;;;;;;;;;;;;;;;-144.01;100.00;62166.59;5056800;28;19913;-69
2021/03/24 09:50:42;;;;;;;;;;;;;;;-144.01;100.00;62166.59;5059158;28;19940;-70
2021/03/24 09:53:12;;;;;;;;;;;;;;;-144.01;100.00;62166.59;5077027;28;19912;-71
2021/03/24 09:56:07;;;;;;;;;;;;;;;-144.01;100.00;62166.59;5077793;28;19913;-69
2021/03/24 09:58:50;;;;;;;;;;;;;;;-144.01;100.00;62166.59;5062542;28;19923;-70
2021/03/24 10:01:25;;;;;;;;;;;;;;;-144.01;100.00;62166.59;5097911;28;19919;-71
2021/03/24 10:04:12;;;;;;;;;;;;;;;-144.01;100.00;62166.59;5060069;28;19913;-70
2021/03/24 10:06:51;;;;;;;;;;;;;;;-144.01;100.00;62166.59;5042769;28;20222;-71
2021/03/24 10:09:24;;;;;;;;;;;;;;;-144.01;100.00;62166.59;5062297;28;19923;-72
2021/03/24 10:12:00;;;;;;;;;;;;;;;-144.01;100.00;62166.59;5057408;28;19912;-72
2021/03/24 10:14:36;;;;;;;;;;;;;;;-144.01;100.00;62166.59;5074295;28;20353;-71
2021/03/24 10:17:04;;;;;;;;;;;;;;;-144.01;100.00;62166.59;5079547;28;19946;-71
2021/03/24 10:19:33;;;;;;;;;;;;;;;-144.01;100.00;62166.59;5079084;28;19942;-71
2021/03/24 10:22:22;;;;;;;;;;;;;;;-144.01;100.00;62166.59;5071878;28;19913;-70
2021/03/24 10:24:58;;;;;;;;;;;;;;;-144.01;100.00;62166.59;5055987;28;20357;-71
2021/03/24 10:27:26;;;;;;;;;;;;;;;-144.01;100.00;62166.59;5057011;28;19912;-70
2021/03/24 10:29:53;;;;;;;;;;;;;;;-144.01;100.00;62166.59;5055567;28;19924;-56
2021/03/24 10:32:40;;;;;;;;;;;;;;;-144.01;100.00;62166.59;5065280;28;19919;-66
2021/03/24 10:35:26;;;;;;;;;;;;;;;-144.01;100.00;62166.59;5076362;28;19923;-58
2021/03/24 10:37:54;;;;;;;;;;;;;;;-144.01;100.00;62166.59;5076926;28;19924;-60
2021/03/24 10:40:31;;;;;;;;;;;;;;;-144.01;100.00;62166.59;5055560;28;19920;-64
2021/03/24 10:42:58;;;;;;;;;;;;;;;-144.01;100.00;62166.59;5055785;28;20301;-66
2021/03/24 10:45:32;;;;;;;;;;;;;;;-144.01;100.00;62166.59;5056833;28;19924;-62
2021/03/24 10:48:05;;;;;;;;;;;;;;;-144.01;100.00;62166.59;5055903;28;19916;-53
2021/03/24 10:50:31;;;;;;;;;;;;;;;-144.01;100.00;62166.59;5063433;28;19913;-69
2021/03/24 10:52:58;;;;;;;;;;;;;;;-144.01;100.00;62166.59;5076600;28;19920;-70
2021/03/24 10:55:26;;;;;;;;;;;;;;;-144.01;100.00;62166.59;5076659;28;20354;-63
2021/03/24 10:58:07;;;;;;;;;;;;;;;-144.01;100.00;62166.59;5076624;28;20337;-62
2021/03/24 11:00:36;;;;;;;;;;;;;;;-144.01;100.00;62166.59;5058714;28;19916;-68
2021/03/24 11:03:12;;;;;;;;;;;;;;;-144.01;100.00;62166.59;5055205;28;19920;-64
2021/03/24 11:05:49;;;;;;;;;;;;;;;-144.01;100.00;62166.59;5080636;28;19916;-69
2021/03/24 11:08:20;;;;;;;;;;;;;;;-144.01;100.00;62166.59;5055518;28;19944;-67
2021/03/24 11:11:04;;;;;;;;;;;;;;;-144.01;100.00;62166.59;5063651;28;19919;-67
2021/03/24 11:13:39;;;;;;;;;;;;;;;-144.01;100.00;62166.59;5068775;28;19917;-68
2021/03/24 11:16:06;;;;;;;;;;;;;;;-144.01;100.00;62166.59;5055001;28;19916;-58
2021/03/24 11:18:49;;;;;;;;;;;;;;;-144.01;100.00;62166.59;5056222;28;19923;-69
2021/03/24 11:21:24;;;;;;;;;;;;;;;-144.01;100.00;62166.59;5067346;28;19923;-69
2021/03/24 11:23:52;;;;;;;;;;;;;;;-144.01;100.00;62166.59;5055202;28;19917;-69
2021/03/24 11:26:32;;;;;;;;;;;;;;;-144.01;100.00;62166.59;5055210;28;19920;-70
2021/03/24 11:29:00;;;;;;;;;;;;;;;-144.01;100.00;62166.59;5061956;28;20203;-70
2021/03/24 11:31:28;;;;;;;;;;;;;;;-144.01;100.00;62166.59;5067920;28;19912;-70
2021/03/24 11:34:06;;;;;;;;;;;;;;;-144.01;100.00;62166.59;5054786;28;19923;-70
2021/03/24 11:36:38;;;;;;;;;;;;;;;-144.01;100.00;62166.59;5055264;28;20223;-70
2021/03/24 11:39:05;;;;;;;;;;;;;;;-144.01;100.00;62166.59;5055000;28;19917;-70
2021/03/24 11:41:36;;;;;;;;;;;;;;;-144.01;100.00;62166.59;5069692;28;19924;-70
2021/03/24 11:44:09;;;;;;;;;;;;;;;-144.01;100.00;62166.59;5058609;28;19916;-69
2021/03/24 11:46:42;;;;;;;;;;;;;;;-144.01;100.00;62166.59;5041125;28;19913;-70
2021/03/24 11:49:24;;;;;;;;;;;;;;;-144.01;100.00;62166.59;5075586;28;19919;-71
2021/03/24 11:52:10;;;;;;;;;;;;;;;-144.01;100.00;62166.59;5069110;28;19912;-70
2021/03/24 11:54:38;;;;;;;;;;;;;;;-144.01;100.00;62166.59;5056167;28;19928;-65
2021/03/24 11:57:14;;;;;;;;;;;;;;;-144.01;100.00;62166.59;5071554;28;20302;-70
2021/03/24 11:59:44;;;;;;;;;;;;;;;-144.01;100.00;62166.59;5071786;28;19920;-70
2021/03/24 12:02:17;;;;;;;;;;;;;;;-144.01;100.00;62166.59;5056159;28;19913;-70
2021/03/24 12:05:05;;;;;;;;;;;;;;;-144.01;100.00;62166.59;5072839;28;19913;-69
2021/03/24 12:07:36;;;;;;;;;;;;;;;-144.01;100.00;62166.59;5057622;28;20239;-69
2021/03/24 12:10:23;;;;;;;;;;;;;;;-144.01;100.00;62166.59;5058090;28;19913;-70
2021/03/24 12:13:08;;;;;;;;;;;;;;;-144.01;100.00;62166.59;5075198;28;19912;-70
2021/03/24 12:15:36;;;;;;;;;;;;;;;-144.01;100.00;62166.59;5075635;28;20357;-70
2021/03/24 12:18:13;;;;;;;;;;;;;;;-144.01;100.00;62166.59;5075049;28;20318;-68
2021/03/24 12:20:52;;;;;;;;;;;;;;;-144.01;100.00;62166.59;5071744;28;19912;-69
2021/03/24 12:23:19;;;;;;;;;;;;;;;-144.01;100.00;62166.59;5055868;28;20307;-69
2021/03/24 12:25:47;;;;;;;;;;;;;;;-144.01;100.00;62166.59;5071671;28;19913;-69
2021/03/24 12:28:22;;;;;;;;;;;;;;;-144.01;100.00;62166.59;5062633;28;19916;-70
2021/03/24 12:30:50;;;;;;;;;;;;;;;-144.01;100.00;62166.59;5041473;28;19916;-67
2021/03/24 12:33:19;;;;;;;;;;;;;;;-144.01;100.00;62166.59;5054242;28;19912;-49
2021/03/24 12:35:47;;;;;;;;;;;;;;;-144.01;100.00;62166.59;5075599;28;19919;-70
2021/03/24 12:38:18;;;;;;;;;;;;;;;-144.01;100.00;62166.59;5074205;28;19916;-70
2021/03/24 12:40:52;;;;;;;;;;;;;;;-144.01;100.00;62166.59;5057948;28;20226;-70
2021/03/24 12:43:23;;;;;;;;;;;;;;;-144.01;100.00;62166.59;5057380;28;20245;-71
2021/03/24 12:45:50;;;;;;;;;;;;;;;-144.01;100.00;62166.59;5058200;28;19916;-70